Kezdőlap
METAR-TAF:

METAR-TAF

Repülőterek :

Estherville Municipal Airport

Estherville, Iowa, Amerikai Egyesült Államok

földrajzi szélesség: 43-24-04N, földrajzi hosszúság: 094-44-50W, magasság: 401 m

Jelenlegi meteorológiai megfigyelések

A jelentés 33 perccel ezelõtt készült, 15:52 UTC
Északnyugati szél 6 kt
Hőmérséklet -9°C
Páratartalom 85%
Légköri nyomás 1029 hPa
Látótávolság: 16.1 km
Derült ég

METAR: KEST 061552Z AUTO 31006KT 10SM CLR M09/M11 A3039 RMK AO2 SLP312 T10891106

Idő: 10:25 (16:25 UTC)


TAF: hiányzik

Meteorológiai megfigyelések és előrejelzések több, mint 4000 repülőtéren (METAR és TAF jelentéseket).

A térképen piros és sárga pontok jelzik az elérhető meteorológiai állomásokat.

Mozgassa az egeret a pont fölött, hogy megjelenjen az állomás neve.

Azután kattintson az időjárási megfigyelések és előrejelzések megtekintéséhez.

A térkép megváltoztatása: kattintson a fekete keresztel jelölt zöld gombra ráközelítéshez, a vonallal jelölt zöld gombra távolításhoz, vagy a zöld nyilakra a szomszédos térképek eléréséhez.


METAR-TAF: